Time;durP1;ratioP1;P1;durP2;ratioP2;P2;SDS_P1;SDS_P2;PMS_P1;PMS_P2;Temp;Humidity;BMP_temperature;BMP_pressure;BME280_temperature;BME280_humidity;BME280_pressure;Samples;Min_cycle;Max_cycle;Signal;HPM_P1;HPM_P2
2023/01/19 00:02:17;;;;;;;4.10;1.80;;;;;;;;;;5012801;28;20025;-39
2023/01/19 00:04:42;;;;;;;2.33;2.03;;;;;;;;;;5012695;28;20033;-39
2023/01/19 00:07:08;;;;;;;3.08;1.50;;;;;;;;;;4995194;28;20021;-39
2023/01/19 00:09:37;;;;;;;2.28;1.55;;;;;;;;;;5012632;28;20197;-39
2023/01/19 00:12:02;;;;;;;3.50;1.60;;;;;;;;;;5012636;28;20022;-39
2023/01/19 00:14:28;;;;;;;2.45;2.08;;;;;;;;;;5012565;28;20450;-39
2023/01/19 00:16:53;;;;;;;4.93;2.30;;;;;;;;;;5012808;28;20061;-39
2023/01/19 00:19:18;;;;;;;6.28;2.08;;;;;;;;;;5012686;28;20056;-39
2023/01/19 00:21:44;;;;;;;4.20;1.77;;;;;;;;;;5012534;28;20018;-39
2023/01/19 00:24:09;;;;;;;4.07;2.47;;;;;;;;;;5012374;28;20034;-39
2023/01/19 00:26:34;;;;;;;3.03;2.10;;;;;;;;;;5012399;28;20026;-39
2023/01/19 00:29:00;;;;;;;3.42;1.63;;;;;;;;;;5012734;28;20026;-39
2023/01/19 00:31:28;;;;;;;1.92;1.42;;;;;;;;;;4978566;28;20022;-39
2023/01/19 00:33:54;;;;;;;2.13;1.60;;;;;;;;;;5012320;28;20498;-39
2023/01/19 00:36:19;;;;;;;3.25;2.17;;;;;;;;;;5012191;28;20022;-39
2023/01/19 00:38:45;;;;;;;3.78;1.50;;;;;;;;;;5012047;28;20050;-39
2023/01/19 00:41:10;;;;;;;3.28;1.83;;;;;;;;;;5012235;28;20072;-39
2023/01/19 00:43:35;;;;;;;4.30;1.52;;;;;;;;;;5011863;28;20054;-39
2023/01/19 00:46:01;;;;;;;2.15;1.95;;;;;;;;;;5012273;28;20112;-39
2023/01/19 00:48:26;;;;;;;1.73;1.33;;;;;;;;;;5012015;28;20517;-39
2023/01/19 00:50:51;;;;;;;2.55;2.08;;;;;;;;;;5011969;28;20029;-39
2023/01/19 00:53:17;;;;;;;2.28;1.70;;;;;;;;;;5011915;28;20044;-39
2023/01/19 00:55:42;;;;;;;2.58;1.95;;;;;;;;;;5012076;28;20032;-40
2023/01/19 00:58:08;;;;;;;1.40;1.27;;;;;;;;;;5012131;28;20092;-39
2023/01/19 01:00:33;;;;;;;1.83;1.50;;;;;;;;;;5012014;28;20022;-39
2023/01/19 01:02:59;;;;;;;1.60;1.50;;;;;;;;;;5011941;28;20034;-39
2023/01/19 01:05:24;;;;;;;1.17;1.00;;;;;;;;;;5011829;28;20018;-39
2023/01/19 01:07:50;;;;;;;1.90;1.70;;;;;;;;;;5011891;28;20022;-39
2023/01/19 01:10:17;;;;;;;1.92;1.42;;;;;;;;;;5011819;28;20022;-39
2023/01/19 01:12:42;;;;;;;2.35;1.52;;;;;;;;;;5011580;28;20059;-39
2023/01/19 01:15:09;;;;;;;1.60;1.45;;;;;;;;;;5011619;28;20037;-38
2023/01/19 01:17:34;;;;;;;2.80;1.55;;;;;;;;;;5011811;28;20041;-39
2023/01/19 01:20:00;;;;;;;2.20;1.20;;;;;;;;;;5011650;28;20399;-39
2023/01/19 01:22:25;;;;;;;2.10;1.58;;;;;;;;;;5011626;28;20029;-39
2023/01/19 01:24:50;;;;;;;3.35;1.73;;;;;;;;;;5016486;28;20109;-40
2023/01/19 01:27:16;;;;;;;3.13;2.05;;;;;;;;;;5018111;28;20468;-39
2023/01/19 01:29:45;;;;;;;2.38;1.63;;;;;;;;;;5018137;28;20018;-39
2023/01/19 01:32:11;;;;;;;1.98;1.45;;;;;;;;;;5018413;28;20037;-39
2023/01/19 01:34:37;;;;;;;1.25;1.13;;;;;;;;;;5017901;28;20033;-39
2023/01/19 01:37:02;;;;;;;1.10;0.93;;;;;;;;;;5018099;28;20392;-39
2023/01/19 01:39:28;;;;;;;5.75;1.27;;;;;;;;;;5018005;28;20034;-39
2023/01/19 01:41:53;;;;;;;2.10;1.63;;;;;;;;;;5017827;28;20050;-39
2023/01/19 01:44:38;;;;;;;1.77;1.48;;;;;;;;;;5017966;28;20030;-39
2023/01/19 01:47:03;;;;;;;1.50;1.30;;;;;;;;;;5000349;28;20030;-39
2023/01/19 01:49:29;;;;;;;2.20;1.20;;;;;;;;;;5017803;28;20026;-39
2023/01/19 01:51:54;;;;;;;1.58;0.95;;;;;;;;;;5017921;28;20042;-39
2023/01/19 01:54:27;;;;;;;2.17;0.82;;;;;;;;;;5017834;28;20034;-39
2023/01/19 01:56:52;;;;;;;;;;;;;;;;;;5000833;28;20103;-39
2023/01/19 01:59:26;;;;;;;1.67;1.20;;;;;;;;;;5017841;28;20000;-39
2023/01/19 02:04:38;;;;;;;0.88;0.88;;;;;;;;;;5017936;28;20395;-40
2023/01/19 02:15:19;;;;;;;2.03;1.27;;;;;;;;;;5017986;28;20029;-39
2023/01/19 02:17:44;;;;;;;0.60;0.60;;;;;;;;;;5017794;28;20034;-39
2023/01/19 02:20:10;;;;;;;1.13;0.95;;;;;;;;;;5017928;28;20065;-39
2023/01/19 02:22:39;;;;;;;3.30;1.10;;;;;;;;;;5017920;28;20033;-39
2023/01/19 02:25:05;;;;;;;2.38;1.08;;;;;;;;;;5017506;28;20137;-39
2023/01/19 02:27:31;;;;;;;1.48;1.38;;;;;;;;;;5017532;28;20022;-39
2023/01/19 02:29:57;;;;;;;1.80;1.27;;;;;;;;;;5017749;28;20026;-38
2023/01/19 02:32:23;;;;;;;3.78;1.55;;;;;;;;;;5017469;28;20032;-39
2023/01/19 02:34:48;;;;;;;1.52;1.35;;;;;;;;;;5016475;28;20109;-39
2023/01/19 02:37:14;;;;;;;1.45;1.15;;;;;;;;;;5013788;28;20368;-39
2023/01/19 02:39:40;;;;;;;1.17;0.88;;;;;;;;;;5014239;28;20041;-39
2023/01/19 02:42:07;;;;;;;1.13;0.95;;;;;;;;;;5014300;28;20056;-39
2023/01/19 02:44:33;;;;;;;1.20;1.10;;;;;;;;;;5014223;28;20121;-39
2023/01/19 02:46:59;;;;;;;0.98;0.93;;;;;;;;;;5014287;28;20472;-39
2023/01/19 02:49:26;;;;;;;1.15;0.82;;;;;;;;;;5014321;28;20037;-38
2023/01/19 02:51:52;;;;;;;1.77;1.20;;;;;;;;;;5014468;28;20109;-39
2023/01/19 02:54:36;;;;;;;0.88;0.75;;;;;;;;;;4996425;28;20121;-39
2023/01/19 02:57:04;;;;;;;1.83;1.02;;;;;;;;;;4996844;28;20033;-39
2023/01/19 02:59:42;;;;;;;2.35;1.20;;;;;;;;;;5013859;28;20038;-40
2023/01/19 03:02:18;;;;;;;4.32;1.15;;;;;;;;;;4996457;28;20092;-39
2023/01/19 03:04:43;;;;;;;2.88;1.35;;;;;;;;;;5013880;28;20036;-39
2023/01/19 03:07:08;;;;;;;1.23;0.95;;;;;;;;;;5014114;28;20018;-39
2023/01/19 03:09:40;;;;;;;0.80;0.80;;;;;;;;;;5013854;28;20030;-39
2023/01/19 03:12:26;;;;;;;2.05;1.17;;;;;;;;;;5013870;28;20029;-39
2023/01/19 03:14:54;;;;;;;0.77;0.77;;;;;;;;;;4979202;28;20484;-39
2023/01/19 03:17:20;;;;;;;0.63;0.60;;;;;;;;;;5013710;28;20050;-39
2023/01/19 03:19:48;;;;;;;1.58;1.05;;;;;;;;;;5013602;28;20496;-39
2023/01/19 03:22:27;;;;;;;0.70;0.70;;;;;;;;;;5013791;28;20104;-39
2023/01/19 03:24:54;;;;;;;0.85;0.70;;;;;;;;;;5013720;28;20064;-38
2023/01/19 03:27:25;;;;;;;1.38;1.00;;;;;;;;;;5013566;28;20026;-39
2023/01/19 03:29:52;;;;;;;1.55;1.42;;;;;;;;;;4995817;28;20435;-39
2023/01/19 03:32:18;;;;;;;1.10;1.00;;;;;;;;;;5013700;28;20021;-39
2023/01/19 03:34:45;;;;;;;1.95;1.13;;;;;;;;;;5013593;28;20112;-39
2023/01/19 03:37:13;;;;;;;0.82;0.82;;;;;;;;;;4995754;28;20025;-39
2023/01/19 03:39:38;;;;;;;1.13;0.95;;;;;;;;;;5013131;28;20071;-39
2023/01/19 03:42:05;;;;;;;0.85;0.77;;;;;;;;;;5013282;28;20053;-39
2023/01/19 03:44:31;;;;;;;0.43;0.43;;;;;;;;;;5013131;28;20109;-38
2023/01/19 03:46:57;;;;;;;1.58;0.70;;;;;;;;;;5012847;28;20030;-39
2023/01/19 03:49:23;;;;;;;1.27;1.02;;;;;;;;;;5013070;28;20037;-39
2023/01/19 03:51:49;;;;;;;2.83;0.63;;;;;;;;;;5012914;28;20033;-39
2023/01/19 03:54:14;;;;;;;1.27;0.80;;;;;;;;;;5013024;28;20033;-39
2023/01/19 03:56:41;;;;;;;0.50;0.50;;;;;;;;;;5012870;28;20019;-39
2023/01/19 03:59:06;;;;;;;0.50;0.50;;;;;;;;;;5012913;28;20094;-39
2023/01/19 04:01:32;;;;;;;1.02;0.57;;;;;;;;;;5012834;28;20038;-39
2023/01/19 04:03:57;;;;;;;1.90;0.63;;;;;;;;;;5012841;28;20119;-39
2023/01/19 04:06:23;;;;;;;0.75;0.68;;;;;;;;;;5012841;28;20342;-39
2023/01/19 04:08:49;;;;;;;0.35;0.35;;;;;;;;;;5012778;28;20512;-39
2023/01/19 04:11:14;;;;;;;1.63;0.73;;;;;;;;;;5012758;28;20018;-39
2023/01/19 04:13:40;;;;;;;0.55;0.50;;;;;;;;;;5012633;28;20032;-39
2023/01/19 04:16:06;;;;;;;1.05;0.70;;;;;;;;;;5012540;28;20025;-39
2023/01/19 04:18:32;;;;;;;0.88;0.70;;;;;;;;;;5012480;28;20042;-43
2023/01/19 04:21:00;;;;;;;1.38;0.90;;;;;;;;;;5012516;28;20116;-39
2023/01/19 04:23:26;;;;;;;0.65;0.63;;;;;;;;;;5012796;28;20033;-39
2023/01/19 04:25:58;;;;;;;1.05;0.93;;;;;;;;;;5012310;28;20109;-39
2023/01/19 04:28:24;;;;;;;0.55;0.30;;;;;;;;;;5012404;28;20495;-39
2023/01/19 04:30:51;;;;;;;0.60;0.60;;;;;;;;;;5012403;28;20049;-39
2023/01/19 04:33:17;;;;;;;0.70;0.60;;;;;;;;;;5012311;28;20029;-39
2023/01/19 04:35:43;;;;;;;0.70;0.70;;;;;;;;;;5012422;28;20014;-39
2023/01/19 04:38:09;;;;;;;0.60;0.60;;;;;;;;;;5012257;28;20069;-39
2023/01/19 04:40:34;;;;;;;1.27;1.02;;;;;;;;;;5012071;28;20042;-40
2023/01/19 04:42:59;;;;;;;0.93;0.50;;;;;;;;;;5011994;28;20069;-39
2023/01/19 04:45:25;;;;;;;0.70;0.60;;;;;;;;;;5012124;28;20484;-40
2023/01/19 04:47:50;;;;;;;0.40;0.40;;;;;;;;;;5011978;28;20033;-39
2023/01/19 04:50:16;;;;;;;0.30;0.30;;;;;;;;;;5012120;28;20024;-39
2023/01/19 04:52:41;;;;;;;0.40;0.40;;;;;;;;;;5011903;28;20029;-39
2023/01/19 04:55:07;;;;;;;0.77;0.50;;;;;;;;;;5012192;28;20084;-40
2023/01/19 04:57:32;;;;;;;0.30;0.30;;;;;;;;;;5011861;28;20113;-39
2023/01/19 04:59:58;;;;;;;0.43;0.32;;;;;;;;;;5011279;28;20426;-39
2023/01/19 05:02:23;;;;;;;0.50;0.50;;;;;;;;;;5011805;28;20053;-39
2023/01/19 05:04:49;;;;;;;0.30;0.30;;;;;;;;;;5011735;28;20088;-39
2023/01/19 05:07:14;;;;;;;0.30;0.30;;;;;;;;;;5011804;28;20091;-39
2023/01/19 05:09:40;;;;;;;0.40;0.40;;;;;;;;;;5011708;28;20068;-39
2023/01/19 05:12:05;;;;;;;0.20;0.20;;;;;;;;;;5011809;28;20038;-39
2023/01/19 05:14:30;;;;;;;0.30;0.30;;;;;;;;;;4994015;28;20388;-39
2023/01/19 05:16:56;;;;;;;0.30;0.30;;;;;;;;;;5011860;28;20173;-39
2023/01/19 05:19:22;;;;;;;0.32;0.32;;;;;;;;;;5011559;28;20030;-40
2023/01/19 05:21:47;;;;;;;0.55;0.40;;;;;;;;;;5011571;28;20568;-39
2023/01/19 05:24:14;;;;;;;0.30;0.30;;;;;;;;;;5011536;28;20036;-39
2023/01/19 05:26:39;;;;;;;0.15;0.15;;;;;;;;;;5011647;28;20495;-40
2023/01/19 05:29:04;;;;;;;0.30;0.30;;;;;;;;;;5011583;28;20030;-39
2023/01/19 05:31:30;;;;;;;0.88;0.82;;;;;;;;;;5011600;28;20038;-39
2023/01/19 05:33:55;;;;;;;0.30;0.30;;;;;;;;;;5011704;28;20028;-39
2023/01/19 05:36:21;;;;;;;0.30;0.30;;;;;;;;;;5011681;28;20042;-39
2023/01/19 05:38:46;;;;;;;0.20;0.20;;;;;;;;;;5011418;28;20037;-39
2023/01/19 05:41:11;;;;;;;0.20;0.20;;;;;;;;;;5011532;28;20049;-39
2023/01/19 05:43:37;;;;;;;0.20;0.20;;;;;;;;;;5011148;28;20061;-39
2023/01/19 05:46:03;;;;;;;0.20;0.20;;;;;;;;;;5011474;28;20479;-39
2023/01/19 05:48:28;;;;;;;0.30;0.30;;;;;;;;;;5011744;28;20033;-39
2023/01/19 05:50:58;;;;;;;0.20;0.20;;;;;;;;;;5011381;28;20022;-39
2023/01/19 05:53:24;;;;;;;0.40;0.40;;;;;;;;;;5011443;28;20100;-43
2023/01/19 05:55:49;;;;;;;0.20;0.20;;;;;;;;;;5011355;28;20108;-39
2023/01/19 05:58:15;;;;;;;0.20;0.20;;;;;;;;;;5011326;28;20030;-39
2023/01/19 06:00:41;;;;;;;1.38;0.20;;;;;;;;;;5011239;28;20109;-39
2023/01/19 06:03:06;;;;;;;0.20;0.20;;;;;;;;;;5011421;28;20075;-39
2023/01/19 06:05:31;;;;;;;0.50;0.38;;;;;;;;;;4993984;28;20026;-39
2023/01/19 06:07:57;;;;;;;0.32;0.32;;;;;;;;;;5011266;28;20026;-39
2023/01/19 06:10:22;;;;;;;0.20;0.20;;;;;;;;;;5012922;28;20029;-39
2023/01/19 06:12:48;;;;;;;0.32;0.32;;;;;;;;;;5014804;28;20068;-39
2023/01/19 06:15:14;;;;;;;0.68;0.30;;;;;;;;;;5014909;28;20030;-39
2023/01/19 06:17:40;;;;;;;0.40;0.40;;;;;;;;;;5014745;28;20526;-39
2023/01/19 06:20:05;;;;;;;0.30;0.30;;;;;;;;;;5015017;28;20038;-39
2023/01/19 06:22:31;;;;;;;0.20;0.20;;;;;;;;;;5015083;28;20622;-39
2023/01/19 06:24:57;;;;;;;0.20;0.20;;;;;;;;;;5014648;28;20022;-39
2023/01/19 06:27:22;;;;;;;0.38;0.38;;;;;;;;;;5014671;28;20014;-39
2023/01/19 06:29:47;;;;;;;0.20;0.20;;;;;;;;;;5014505;28;20022;-39
2023/01/19 06:32:13;;;;;;;0.32;0.32;;;;;;;;;;5014847;28;20435;-39
2023/01/19 06:34:42;;;;;;;0.30;0.30;;;;;;;;;;5014637;28;20077;-39
2023/01/19 06:37:07;;;;;;;0.22;0.22;;;;;;;;;;5014794;28;20175;-41
2023/01/19 06:39:33;;;;;;;0.35;0.35;;;;;;;;;;5014690;28;20654;-39
2023/01/19 06:41:58;;;;;;;0.40;0.40;;;;;;;;;;5014102;28;20042;-39
2023/01/19 06:44:24;;;;;;;0.80;0.68;;;;;;;;;;5014559;28;20164;-39
2023/01/19 06:46:49;;;;;;;0.55;0.55;;;;;;;;;;5014287;28;20038;-39
2023/01/19 06:49:15;;;;;;;0.50;0.50;;;;;;;;;;5014334;28;20037;-39
2023/01/19 06:51:40;;;;;;;0.40;0.40;;;;;;;;;;5014177;28;20097;-39
2023/01/19 06:54:05;;;;;;;0.35;0.30;;;;;;;;;;5014148;28;20076;-39
2023/01/19 06:56:31;;;;;;;0.35;0.28;;;;;;;;;;5014108;28;20407;-39
2023/01/19 06:58:57;;;;;;;1.85;0.60;;;;;;;;;;5014010;28;20045;-39
2023/01/19 07:01:22;;;;;;;1.20;0.70;;;;;;;;;;4996411;28;20117;-39
2023/01/19 07:03:47;;;;;;;0.30;0.30;;;;;;;;;;5013859;28;20037;-39
2023/01/19 07:06:13;;;;;;;0.30;0.30;;;;;;;;;;5013997;28;20018;-39
2023/01/19 07:08:38;;;;;;;0.40;0.40;;;;;;;;;;5013800;28;20036;-40
2023/01/19 07:11:05;;;;;;;0.43;0.43;;;;;;;;;;5014099;28;20030;-39
2023/01/19 07:13:34;;;;;;;0.52;0.50;;;;;;;;;;5014092;28;20026;-39
2023/01/19 07:16:07;;;;;;;0.22;0.22;;;;;;;;;;5013750;28;20484;-39
2023/01/19 07:18:32;;;;;;;0.40;0.40;;;;;;;;;;5014009;28;20061;-38
2023/01/19 07:20:58;;;;;;;0.30;0.30;;;;;;;;;;5013366;28;20484;-38
2023/01/19 07:23:23;;;;;;;1.60;0.73;;;;;;;;;;5013194;28;20523;-39
2023/01/19 07:25:49;;;;;;;0.30;0.30;;;;;;;;;;5013500;28;20095;-39
2023/01/19 07:28:15;;;;;;;0.30;0.30;;;;;;;;;;5013518;28;20443;-39
2023/01/19 07:30:41;;;;;;;0.40;0.40;;;;;;;;;;5013322;28;20511;-39
2023/01/19 07:33:07;;;;;;;0.98;0.60;;;;;;;;;;5013476;28;20041;-39
2023/01/19 07:35:32;;;;;;;0.40;0.40;;;;;;;;;;5013389;28;20087;-39
2023/01/19 07:37:58;;;;;;;2.00;0.30;;;;;;;;;;5013069;28;20029;-39
2023/01/19 07:40:23;;;;;;;5.15;0.47;;;;;;;;;;5013391;28;20113;-38
2023/01/19 07:42:49;;;;;;;0.65;0.35;;;;;;;;;;5013038;28;20045;-39
2023/01/19 07:45:19;;;;;;;0.25;0.25;;;;;;;;;;4995573;28;20439;-39
2023/01/19 07:47:47;;;;;;;0.82;0.50;;;;;;;;;;5013336;28;20026;-39
2023/01/19 07:50:13;;;;;;;0.35;0.35;;;;;;;;;;5013282;28;20033;-39
2023/01/19 07:52:38;;;;;;;2.47;1.30;;;;;;;;;;5012947;28;20053;-39
2023/01/19 07:55:04;;;;;;;0.50;0.40;;;;;;;;;;5013059;28;20057;-39
2023/01/19 07:57:30;;;;;;;0.35;0.35;;;;;;;;;;5012995;28;20030;-40
2023/01/19 07:59:55;;;;;;;0.25;0.25;;;;;;;;;;4995408;28;20025;-39
2023/01/19 08:02:21;;;;;;;0.40;0.40;;;;;;;;;;5012995;28;20042;-39
2023/01/19 08:04:46;;;;;;;1.02;0.57;;;;;;;;;;5012797;28;20014;-38
2023/01/19 08:07:12;;;;;;;0.30;0.30;;;;;;;;;;5013043;28;20116;-39
2023/01/19 08:09:37;;;;;;;5.43;1.50;;;;;;;;;;5012925;28;20109;-38
2023/01/19 08:12:03;;;;;;;0.70;0.20;;;;;;;;;;5012821;28;20491;-38
2023/01/19 08:14:28;;;;;;;0.30;0.30;;;;;;;;;;5012637;28;20077;-39
2023/01/19 08:16:57;;;;;;;0.57;0.57;;;;;;;;;;5012574;28;20029;-38
2023/01/19 08:19:22;;;;;;;0.30;0.30;;;;;;;;;;5012639;28;20029;-38
2023/01/19 08:21:48;;;;;;;0.30;0.30;;;;;;;;;;4994830;28;20097;-39
2023/01/19 08:24:18;;;;;;;0.30;0.30;;;;;;;;;;5012531;28;20022;-39
2023/01/19 08:26:43;;;;;;;0.20;0.20;;;;;;;;;;5012474;28;20075;-38
2023/01/19 08:29:09;;;;;;;0.38;0.38;;;;;;;;;;5012451;28;20021;-39
2023/01/19 08:31:34;;;;;;;0.40;0.32;;;;;;;;;;5012644;28;20030;-38
2023/01/19 08:34:00;;;;;;;0.38;0.30;;;;;;;;;;5011273;28;20018;-38
2023/01/19 08:36:25;;;;;;;0.63;0.30;;;;;;;;;;4994709;28;20041;-38
2023/01/19 08:38:51;;;;;;;0.30;0.30;;;;;;;;;;5012173;28;20123;-38
2023/01/19 08:41:16;;;;;;;0.52;0.40;;;;;;;;;;5012118;28;20152;-39
2023/01/19 08:43:43;;;;;;;0.40;0.40;;;;;;;;;;5012100;28;20397;-39
2023/01/19 08:46:09;;;;;;;0.30;0.30;;;;;;;;;;5012192;28;20033;-39
2023/01/19 08:48:34;;;;;;;0.85;0.85;;;;;;;;;;5012055;28;20025;-38
2023/01/19 08:50:59;;;;;;;0.28;0.28;;;;;;;;;;5012018;28;20060;-38
2023/01/19 08:53:24;;;;;;;0.30;0.30;;;;;;;;;;5011968;28;20065;-39
2023/01/19 08:55:58;;;;;;;0.30;0.30;;;;;;;;;;5011787;28;20037;-39
2023/01/19 08:58:24;;;;;;;0.43;0.43;;;;;;;;;;5011972;28;20099;-39
2023/01/19 09:00:51;;;;;;;0.45;0.45;;;;;;;;;;5012150;28;20022;-39
2023/01/19 09:03:17;;;;;;;0.20;0.20;;;;;;;;;;5011881;28;20416;-39
2023/01/19 09:05:43;;;;;;;0.88;0.88;;;;;;;;;;5011781;28;20018;-39
2023/01/19 09:08:12;;;;;;;0.43;0.32;;;;;;;;;;5011855;28;20029;-39
2023/01/19 09:10:43;;;;;;;0.35;0.35;;;;;;;;;;4994219;28;20084;-39
2023/01/19 09:13:09;;;;;;;0.40;0.32;;;;;;;;;;4994145;28;20091;-38
2023/01/19 09:15:36;;;;;;;0.30;0.25;;;;;;;;;;5011720;28;20030;-38
2023/01/19 09:18:03;;;;;;;0.30;0.30;;;;;;;;;;5011650;28;20029;-39
2023/01/19 09:20:30;;;;;;;0.65;0.50;;;;;;;;;;5011676;28;20083;-39
2023/01/19 09:22:56;;;;;;;0.35;0.35;;;;;;;;;;5011666;28;20535;-39
2023/01/19 09:25:21;;;;;;;0.20;0.20;;;;;;;;;;5011820;28;20104;-39
2023/01/19 09:27:47;;;;;;;0.40;0.40;;;;;;;;;;5011580;28;20026;-39
2023/01/19 09:30:12;;;;;;;0.30;0.30;;;;;;;;;;5011682;28;20026;-39
2023/01/19 09:32:38;;;;;;;0.30;0.30;;;;;;;;;;4993980;28;20034;-39
2023/01/19 09:35:03;;;;;;;0.52;0.30;;;;;;;;;;5011624;28;20026;-39
2023/01/19 09:37:29;;;;;;;0.30;0.30;;;;;;;;;;5011813;28;20053;-39
2023/01/19 09:39:54;;;;;;;0.32;0.32;;;;;;;;;;5011356;28;20038;-39
2023/01/19 09:42:23;;;;;;;0.60;0.35;;;;;;;;;;5011374;28;20488;-38
2023/01/19 09:44:49;;;;;;;0.70;0.70;;;;;;;;;;4994932;28;20040;-39
2023/01/19 09:47:16;;;;;;;0.35;0.35;;;;;;;;;;5015263;28;20030;-39
2023/01/19 09:49:44;;;;;;;0.20;0.20;;;;;;;;;;5015371;28;20038;-39
2023/01/19 09:52:12;;;;;;;0.70;0.40;;;;;;;;;;5015629;28;20379;-39
2023/01/19 09:54:45;;;;;;;0.47;0.47;;;;;;;;;;5015368;28;20018;-39
2023/01/19 09:57:11;;;;;;;0.20;0.20;;;;;;;;;;5015361;28;20141;-39
2023/01/19 09:59:37;;;;;;;0.35;0.30;;;;;;;;;;5015142;28;20476;-39
2023/01/19 10:02:21;;;;;;;0.68;0.68;;;;;;;;;;5015206;28;20026;-39
2023/01/19 10:04:54;;;;;;;0.43;0.43;;;;;;;;;;5015002;28;20530;-39
2023/01/19 10:07:20;;;;;;;0.82;0.50;;;;;;;;;;5015074;28;20034;-39
2023/01/19 10:09:50;;;;;;;0.30;0.30;;;;;;;;;;5015004;28;20030;-39
2023/01/19 10:12:24;;;;;;;1.05;0.63;;;;;;;;;;5015012;28;20038;-39
2023/01/19 10:15:00;;;;;;;0.82;0.50;;;;;;;;;;5014747;28;20091;-39
2023/01/19 10:17:44;;;;;;;0.40;0.40;;;;;;;;;;5014905;28;20492;-39
2023/01/19 10:20:17;;;;;;;0.30;0.30;;;;;;;;;;5014888;28;20073;-39
2023/01/19 10:22:46;;;;;;;0.47;0.45;;;;;;;;;;5014738;28;20502;-39
2023/01/19 10:25:17;;;;;;;0.57;0.40;;;;;;;;;;5014957;28;20033;-38
2023/01/19 10:27:43;;;;;;;2.83;0.57;;;;;;;;;;4996933;28;20048;-38
2023/01/19 10:30:15;;;;;;;0.57;0.52;;;;;;;;;;5014672;28;20523;-39
2023/01/19 10:32:40;;;;;;;0.40;0.40;;;;;;;;;;5014603;28;20049;-39
2023/01/19 10:35:13;;;;;;;0.20;0.20;;;;;;;;;;4997246;28;20109;-39
2023/01/19 10:37:40;;;;;;;0.30;0.30;;;;;;;;;;5014628;28;20044;-39
2023/01/19 10:40:09;;;;;;;0.60;0.60;;;;;;;;;;5014557;28;20044;-39
2023/01/19 10:42:35;;;;;;;0.30;0.30;;;;;;;;;;4996617;28;20046;-39
2023/01/19 10:45:01;;;;;;;1.17;0.47;;;;;;;;;;5014329;28;20056;-38
2023/01/19 10:47:35;;;;;;;0.70;0.50;;;;;;;;;;5014375;28;20061;-38
2023/01/19 10:50:19;;;;;;;0.60;0.40;;;;;;;;;;5014229;28;20117;-39
2023/01/19 10:52:48;;;;;;;0.50;0.50;;;;;;;;;;5014040;28;20026;-39
2023/01/19 10:55:22;;;;;;;0.63;0.40;;;;;;;;;;5013732;28;20018;-39
2023/01/19 10:57:50;;;;;;;0.40;0.40;;;;;;;;;;5012926;28;20080;-39
2023/01/19 11:00:18;;;;;;;0.35;0.35;;;;;;;;;;5014457;28;20025;-39
2023/01/19 11:02:49;;;;;;;0.40;0.40;;;;;;;;;;5014240;28;20045;-40
2023/01/19 11:05:22;;;;;;;0.20;0.20;;;;;;;;;;4980158;28;20079;-39
2023/01/19 11:07:48;;;;;;;0.30;0.30;;;;;;;;;;5013911;28;20030;-40
2023/01/19 11:10:16;;;;;;;0.30;0.30;;;;;;;;;;5013921;28;20486;-39
2023/01/19 11:12:43;;;;;;;0.40;0.40;;;;;;;;;;4996229;28;20108;-39
2023/01/19 11:15:14;;;;;;;0.50;0.50;;;;;;;;;;4996495;28;20433;-39
2023/01/19 11:17:41;;;;;;;0.40;0.40;;;;;;;;;;4995985;28;20033;-39
2023/01/19 11:20:17;;;;;;;1.35;0.85;;;;;;;;;;5014026;28;20729;-39
2023/01/19 11:22:42;;;;;;;0.75;0.32;;;;;;;;;;5013732;28;20030;-39
2023/01/19 11:25:20;;;;;;;0.30;0.30;;;;;;;;;;5013594;28;20375;-39
2023/01/19 11:27:50;;;;;;;0.40;0.40;;;;;;;;;;5013666;28;20026;-39
2023/01/19 11:30:19;;;;;;;0.30;0.30;;;;;;;;;;5013809;28;20480;-38
2023/01/19 11:32:45;;;;;;;0.30;0.30;;;;;;;;;;5013486;28;20030;-39
2023/01/19 11:35:29;;;;;;;2.10;0.47;;;;;;;;;;5013461;28;20022;-38
2023/01/19 11:38:05;;;;;;;0.30;0.30;;;;;;;;;;5013349;28;20042;-39
2023/01/19 11:40:30;;;;;;;0.32;0.32;;;;;;;;;;5013211;28;20076;-39
2023/01/19 11:42:56;;;;;;;1.05;0.95;;;;;;;;;;5013124;28;20504;-39
2023/01/19 11:45:22;;;;;;;0.47;0.40;;;;;;;;;;5013194;28;20124;-38
2023/01/19 11:47:51;;;;;;;0.40;0.40;;;;;;;;;;5013073;28;20065;-41
2023/01/19 11:50:37;;;;;;;0.47;0.47;;;;;;;;;;4995667;28;20037;-39
2023/01/19 11:53:15;;;;;;;0.40;0.40;;;;;;;;;;5013303;28;20435;-39
2023/01/19 11:55:50;;;;;;;0.30;0.30;;;;;;;;;;5012975;28;20026;-39
2023/01/19 11:58:16;;;;;;;0.57;0.57;;;;;;;;;;5013031;28;20520;-39
2023/01/19 12:01:01;;;;;;;0.30;0.30;;;;;;;;;;5012826;28;20041;-39
2023/01/19 12:03:29;;;;;;;0.68;0.50;;;;;;;;;;4995217;28;20454;-39
2023/01/19 12:05:57;;;;;;;0.60;0.60;;;;;;;;;;5012824;28;20021;-39
2023/01/19 12:08:44;;;;;;;0.30;0.30;;;;;;;;;;5012593;28;20429;-39
2023/01/19 12:11:14;;;;;;;0.40;0.40;;;;;;;;;;4995236;28;20726;-39
2023/01/19 12:13:42;;;;;;;0.68;0.68;;;;;;;;;;5012625;28;20040;-39
2023/01/19 12:16:28;;;;;;;0.43;0.40;;;;;;;;;;5012694;28;20456;-39
2023/01/19 12:19:26;;;;;;;0.30;0.30;;;;;;;;;;5011968;28;20049;-38
2023/01/19 12:21:52;;;;;;;0.50;0.50;;;;;;;;;;4958506;28;20037;-39
2023/01/19 12:24:36;;;;;;;0.30;0.30;;;;;;;;;;4995019;28;20105;-39
2023/01/19 12:27:06;;;;;;;0.20;0.20;;;;;;;;;;5012462;28;20483;-39
2023/01/19 12:29:33;;;;;;;0.30;0.30;;;;;;;;;;5012493;28;20037;-39
2023/01/19 12:32:20;;;;;;;0.40;0.40;;;;;;;;;;5012312;28;20506;-39
2023/01/19 12:34:50;;;;;;;0.30;0.30;;;;;;;;;;5012253;28;20029;-39
2023/01/19 12:37:28;;;;;;;0.57;0.45;;;;;;;;;;5012520;28;20034;-39
2023/01/19 12:39:55;;;;;;;0.70;0.70;;;;;;;;;;5012470;28;20069;-41
2023/01/19 12:42:21;;;;;;;0.52;0.45;;;;;;;;;;5012079;28;20073;-39
2023/01/19 12:44:47;;;;;;;0.75;0.38;;;;;;;;;;5011998;28;20038;-39
2023/01/19 12:47:12;;;;;;;1.45;0.73;;;;;;;;;;4994730;28;20037;-39
2023/01/19 12:49:43;;;;;;;0.50;0.50;;;;;;;;;;5012192;28;20033;-39
2023/01/19 12:52:23;;;;;;;0.50;0.50;;;;;;;;;;5012281;28;20037;-39
2023/01/19 12:55:00;;;;;;;0.80;0.80;;;;;;;;;;5011957;28;20113;-38
2023/01/19 12:57:28;;;;;;;0.50;0.50;;;;;;;;;;5012289;28;20034;-39
2023/01/19 12:59:54;;;;;;;2.28;0.50;;;;;;;;;;5011823;28;20026;-39
2023/01/19 13:02:20;;;;;;;0.35;0.30;;;;;;;;;;5011954;28;20121;-39
2023/01/19 13:05:24;;;;;;;0.50;0.50;;;;;;;;;;5011745;28;20112;-39
2023/01/19 13:08:01;;;;;;;0.43;0.43;;;;;;;;;;4912894;29;20471;-38
2023/01/19 13:10:45;;;;;;;0.30;0.30;;;;;;;;;;4897235;29;20036;-39
2023/01/19 13:13:17;;;;;;;0.40;0.40;;;;;;;;;;4979126;28;20070;-38
2023/01/19 13:15:43;;;;;;;1.38;0.50;;;;;;;;;;5011820;28;20026;-39
2023/01/19 13:18:09;;;;;;;0.68;0.52;;;;;;;;;;5011654;28;20149;-39
2023/01/19 13:20:49;;;;;;;0.47;0.28;;;;;;;;;;5011379;28;20121;-40
2023/01/19 13:23:14;;;;;;;0.50;0.50;;;;;;;;;;5011749;28;20030;-39
2023/01/19 13:25:42;;;;;;;0.32;0.32;;;;;;;;;;5011701;28;20028;-39
2023/01/19 13:28:08;;;;;;;0.40;0.40;;;;;;;;;;5011645;28;20030;-39
2023/01/19 13:30:35;;;;;;;0.35;0.35;;;;;;;;;;5011951;28;20017;-39
2023/01/19 13:33:05;;;;;;;0.40;0.40;;;;;;;;;;5011478;28;20038;-39
2023/01/19 13:35:31;;;;;;;0.40;0.40;;;;;;;;;;5011631;28;20029;-38
2023/01/19 13:37:57;;;;;;;0.40;0.40;;;;;;;;;;4993853;28;20022;-39
2023/01/19 13:40:24;;;;;;;0.70;0.70;;;;;;;;;;5011561;28;20204;-39
2023/01/19 13:42:51;;;;;;;0.75;0.75;;;;;;;;;;5011330;28;20050;-39
2023/01/19 13:45:23;;;;;;;0.35;0.35;;;;;;;;;;5011403;28;20038;-39
2023/01/19 13:47:48;;;;;;;0.30;0.30;;;;;;;;;;4993820;28;20026;-39
2023/01/19 13:50:21;;;;;;;0.75;0.65;;;;;;;;;;5011539;28;20034;-38
2023/01/19 13:52:49;;;;;;;0.80;0.80;;;;;;;;;;5011618;28;20034;-38
2023/01/19 13:55:15;;;;;;;0.85;0.60;;;;;;;;;;5011576;28;20029;-39
2023/01/19 13:57:45;;;;;;;1.02;0.80;;;;;;;;;;5011370;28;20046;-38
2023/01/19 14:00:13;;;;;;;0.98;0.60;;;;;;;;;;5011296;28;20046;-39
2023/01/19 14:02:58;;;;;;;0.40;0.40;;;;;;;;;;5011273;28;20033;-39
2023/01/19 14:05:31;;;;;;;0.45;0.45;;;;;;;;;;5011304;28;20452;-39
2023/01/19 14:08:12;;;;;;;0.30;0.30;;;;;;;;;;5011309;28;20389;-38
2023/01/19 14:10:45;;;;;;;0.38;0.38;;;;;;;;;;4993639;28;20062;-39
2023/01/19 14:13:10;;;;;;;0.77;0.77;;;;;;;;;;4993516;28;20084;-39
2023/01/19 14:15:37;;;;;;;1.23;0.80;;;;;;;;;;5011502;28;20026;-39
2023/01/19 14:18:07;;;;;;;0.47;0.40;;;;;;;;;;5011072;28;20040;-39
2023/01/19 14:20:35;;;;;;;0.77;0.75;;;;;;;;;;5011159;28;20067;-38
2023/01/19 14:23:01;;;;;;;0.50;0.50;;;;;;;;;;5010996;28;20105;-39
2023/01/19 14:25:33;;;;;;;0.80;0.80;;;;;;;;;;5011167;28;20170;-39
2023/01/19 14:28:17;;;;;;;0.60;0.60;;;;;;;;;;5011064;28;20026;-39
2023/01/19 14:30:53;;;;;;;0.68;0.60;;;;;;;;;;5011768;28;20448;-39
2023/01/19 14:33:54;;;;;;;7.22;2.42;;;;;;;;;;5014618;28;20059;-39
2023/01/19 14:36:23;;;;;;;1.13;0.90;;;;;;;;;;4915718;29;20032;-40
2023/01/19 14:38:49;;;;;;;1.23;0.73;;;;;;;;;;4995450;28;20124;-39
2023/01/19 14:41:34;;;;;;;0.88;0.73;;;;;;;;;;5014351;28;20034;-41
2023/01/19 14:43:59;;;;;;;0.98;0.85;;;;;;;;;;5014287;28;20050;-39
2023/01/19 14:46:25;;;;;;;0.40;0.40;;;;;;;;;;5014638;28;20033;-39
2023/01/19 14:48:52;;;;;;;0.50;0.50;;;;;;;;;;5014318;28;20049;-39
2023/01/19 14:51:22;;;;;;;1.30;1.20;;;;;;;;;;5014511;28;20026;-39
2023/01/19 14:53:53;;;;;;;0.35;0.35;;;;;;;;;;5014106;28;20038;-39
2023/01/19 14:56:29;;;;;;;1.85;0.90;;;;;;;;;;5014286;28;20034;-39
2023/01/19 14:58:55;;;;;;;0.30;0.30;;;;;;;;;;5013998;28;20123;-39
2023/01/19 15:01:22;;;;;;;2.67;1.08;;;;;;;;;;5014074;28;20014;-39